Terminal Aerodrome Forecast
Issued by NWS

Home | Current Version | Previous Version | Text Only | Print | Product List | Glossary On
Versions: 1 2 3 4 5 6 7 8 9 10 11 12 13 14 15
077
FTUS42 KTBW 121123
TAFPIE
TAF
KPIE 121123Z 1212/1312 18005KT 6SM BR SKC
     FM121400 22008KT P6SM SKC
     FM121800 24013KT P6SM SKC
     FM130000 24005KT P6SM SKC
     FM130900 31007KT 6SM BR FEW020=

USA.gov is the U.S. government's official web portal to all federal, state and local government web resources and services.